KGCN

Grand Canyon National Park Airport

Airport
ICAO code
KGCN
IATA Code
GCN
Summary
ICAO Region
NAM
ICAO Territory
Location

Tusayan, Arizona

Serving
Grand Canyon National Park
Elevation
6609 ft
Coordinates
35° 57' 33" N , 112° 8' 1" W
KCC
Metar
KGCN 221918Z 25004KT 10SM OVC032 07/M01 A3027 RMK AO2 T00671011

Grand Canyon National Park Airport is a state-owned public-use airport located in Tusayan, Coconino County, Arizona, USA. It is near Grand Canyon National Park and is located seven miles from the South Rim of the Grand Canyon. The airport is primarily used for scenic tours and charter flights, but there is also scheduled commercial service.

Airport map

Aerial View

SKYbrary Partners:

Safety knowledge contributed by: